createdAt,value
2023-03-17T00:04:48.715Z,99986.47
2023-03-17T00:15:10.864Z,99984.03
2023-03-17T00:25:34.445Z,99992.28
2023-03-17T00:35:57.460Z,99988.91
2023-03-17T00:46:29.125Z,99994.69
2023-03-17T00:56:52.685Z,99986.34
2023-03-17T01:07:14.234Z,99998.78
2023-03-17T01:17:35.706Z,99997.97
2023-03-17T01:27:59.342Z,100013.81
2023-03-17T01:38:20.507Z,100013.81
2023-03-17T01:48:56.654Z,100010.53
2023-03-17T01:59:28.682Z,100015.47
2023-03-17T02:09:52.566Z,100027.22
2023-03-17T02:20:17.407Z,100038.91
2023-03-17T02:30:38.785Z,100053.91
2023-03-17T02:41:00.215Z,100059.75
2023-03-17T02:51:21.350Z,100069.78
2023-03-17T03:01:42.754Z,100069.78
2023-03-17T03:12:04.612Z,100075.63
2023-03-17T03:22:25.965Z,100081.47
2023-03-17T03:32:53.481Z,100083.97
2023-03-17T03:43:23.066Z,100097.31
2023-03-17T03:53:45.203Z,100102.28
2023-03-17T04:04:06.206Z,100117.28
2023-03-17T04:14:08.953Z,100128.09
2023-03-17T04:24:30.635Z,100142.28
2023-03-17T04:34:52.060Z,100153.09
2023-03-17T04:45:15.559Z,100159.75
2023-03-17T04:55:36.692Z,100169.72
2023-03-17T05:05:58.683Z,100175.50
2023-03-17T05:16:20.612Z,100184.63
2023-03-17T05:26:42.254Z,100194.63
2023-03-17T05:37:03.884Z,100197.09
2023-03-17T05:47:25.739Z,100216.38
2023-03-17T05:57:47.422Z,100218.13
2023-03-17T06:08:08.911Z,100223.88
2023-03-17T06:18:30.098Z,100232.97
2023-03-17T06:28:51.160Z,100243.69
2023-03-17T06:39:13.983Z,100247.72
2023-03-17T06:49:35.524Z,100254.34
2023-03-17T06:59:57.066Z,100256.03
2023-03-17T07:10:19.245Z,100256.84
2023-03-17T07:20:41.482Z,100273.34
2023-03-17T07:31:05.862Z,100272.53
2023-03-17T07:41:28.458Z,100275.84
2023-03-17T07:51:50.146Z,100279.13
2023-03-17T08:02:16.404Z,100283.22
2023-03-17T08:12:37.824Z,100288.19
2023-03-17T08:22:58.962Z,100296.31
2023-03-17T08:33:22.198Z,100304.72
2023-03-17T08:43:44.509Z,100320.59
2023-03-17T08:54:06.963Z,100327.16
2023-03-17T09:04:28.789Z,100328.19
2023-03-17T09:14:42.656Z,100336.28
2023-03-17T09:25:04.876Z,100336.97
2023-03-17T09:35:28.179Z,100340.31
2023-03-17T09:45:49.419Z,100347.81
2023-03-17T09:56:17.041Z,100357.84
2023-03-17T10:06:43.598Z,100353.41
2023-03-17T10:17:22.717Z,100364.28
2023-03-17T10:28:26.173Z,100369.09
2023-03-17T10:38:54.247Z,100370.63
2023-03-17T10:49:18.179Z,100378.16
2023-03-17T10:59:49.646Z,100383.00
2023-03-17T11:10:36.982Z,100382.22
2023-03-17T11:21:46.797Z,100379.81
2023-03-17T11:32:33.424Z,100392.97
2023-03-17T11:43:22.361Z,100397.19
2023-03-17T11:54:19.221Z,100402.00
2023-03-17T12:04:57.312Z,100410.47
2023-03-17T12:15:41.856Z,100423.13
2023-03-17T12:26:12.913Z,100418.13
2023-03-17T12:36:38.128Z,100421.41
2023-03-17T12:47:06.492Z,100434.88
2023-03-17T12:57:43.781Z,100432.19
2023-03-17T13:08:10.814Z,100435.66
2023-03-17T13:18:35.148Z,100446.44
2023-03-17T13:29:03.534Z,100436.25
2023-03-17T13:39:41.921Z,100450.56
2023-03-17T13:50:13.341Z,100459.78
2023-03-17T14:00:39.570Z,100468.81
2023-03-17T14:11:08.971Z,100473.91
2023-03-17T14:21:32.779Z,100477.25
2023-03-17T14:32:05.870Z,100482.22
2023-03-17T14:42:31.891Z,100484.72
2023-03-17T14:52:53.689Z,100493.19
2023-03-17T15:03:25.268Z,100504.78
2023-03-17T15:13:47.632Z,100512.34
2023-03-17T15:24:40.509Z,100509.13
2023-03-17T15:35:01.745Z,100519.97
2023-03-17T15:45:23.035Z,100527.47
2023-03-17T15:55:44.759Z,100545.06
2023-03-17T16:06:16.251Z,100555.88
2023-03-17T16:16:41.295Z,100556.75
2023-03-17T16:27:02.903Z,100565.03
2023-03-17T16:37:23.859Z,100569.19
2023-03-17T16:47:45.395Z,100571.63
2023-03-17T16:58:33.058Z,100574.88
2023-03-17T17:08:54.474Z,100590.72
2023-03-17T17:19:17.164Z,100601.53
2023-03-17T17:29:38.557Z,100603.16
2023-03-17T17:40:00.266Z,100604.75
2023-03-17T17:50:28.283Z,100602.19
2023-03-17T18:00:50.751Z,100613.06
2023-03-17T18:11:12.391Z,100617.97
2023-03-17T18:21:36.454Z,100618.75
2023-03-17T18:31:58.470Z,100618.78
2023-03-17T18:42:19.846Z,100621.25
2023-03-17T18:52:42.498Z,100633.81
2023-03-17T19:03:03.876Z,100640.44
2023-03-17T19:13:25.365Z,100631.22
2023-03-17T19:23:47.150Z,100636.22
2023-03-17T19:34:11.350Z,100642.84
2023-03-17T19:44:33.851Z,100636.09
2023-03-17T19:54:54.907Z,100626.94
2023-03-17T20:05:16.040Z,100628.69
2023-03-17T20:15:38.394Z,100636.94
2023-03-17T20:26:01.470Z,100632.66
2023-03-17T20:36:24.536Z,100626.03
2023-03-17T20:46:46.230Z,100613.50
2023-03-17T20:57:12.183Z,100613.50
2023-03-17T21:07:33.858Z,100626.78
2023-03-17T21:17:55.514Z,100626.03
2023-03-17T21:28:17.286Z,100625.94
2023-03-17T21:38:38.868Z,100631.84
2023-03-17T21:49:00.538Z,100634.31
2023-03-17T21:59:23.536Z,100628.50
2023-03-17T22:09:45.059Z,100622.72
2023-03-17T22:20:07.984Z,100627.75
2023-03-17T22:30:30.468Z,100636.09
2023-03-17T22:41:06.349Z,100634.47
2023-03-17T22:51:28.434Z,100636.25
2023-03-17T23:01:49.607Z,100649.78
2023-03-17T23:12:12.607Z,100644.78
2023-03-17T23:22:34.675Z,100634.78
2023-03-17T23:32:57.183Z,100658.22
2023-03-17T23:43:19.512Z,100659.09
2023-03-17T23:53:41.798Z,100644.03
